sensor_id;sensor_type;location;lat;lon;timestamp;temperature;humidity
16315;DHT22;8266;52.150;4.768;2022-10-23T00:00:26;16.50;99.90
16315;DHT22;8266;52.150;4.768;2022-10-23T00:02:54;16.50;99.90
16315;DHT22;8266;52.150;4.768;2022-10-23T00:05:22;16.40;99.90
16315;DHT22;8266;52.150;4.768;2022-10-23T00:07:51;16.40;99.90
16315;DHT22;8266;52.150;4.768;2022-10-23T00:10:21;16.40;99.90
16315;DHT22;8266;52.150;4.768;2022-10-23T00:12:48;16.40;99.90
16315;DHT22;8266;52.150;4.768;2022-10-23T00:15:18;16.40;99.90
16315;DHT22;8266;52.150;4.768;2022-10-23T00:17:45;16.30;99.90
16315;DHT22;8266;52.150;4.768;2022-10-23T00:20:14;16.30;99.90
16315;DHT22;8266;52.150;4.768;2022-10-23T00:22:41;16.30;99.90
16315;DHT22;8266;52.150;4.768;2022-10-23T00:25:10;16.30;99.90
16315;DHT22;8266;52.150;4.768;2022-10-23T00:27:37;16.30;99.90
16315;DHT22;8266;52.150;4.768;2022-10-23T00:30:07;16.20;99.90
16315;DHT22;8266;52.150;4.768;2022-10-23T00:32:34;16.20;99.90
16315;DHT22;8266;52.150;4.768;2022-10-23T00:35:01;16.20;99.90
16315;DHT22;8266;52.150;4.768;2022-10-23T00:37:29;16.20;99.90
16315;DHT22;8266;52.150;4.768;2022-10-23T00:39:58;16.20;99.90
16315;DHT22;8266;52.150;4.768;2022-10-23T00:42:26;16.20;99.90
16315;DHT22;8266;52.150;4.768;2022-10-23T00:45:24;16.20;99.90
16315;DHT22;8266;52.150;4.768;2022-10-23T00:47:54;16.20;99.90
16315;DHT22;8266;52.150;4.768;2022-10-23T00:50:23;16.20;99.90
16315;DHT22;8266;52.150;4.768;2022-10-23T00:52:52;16.20;99.90
16315;DHT22;8266;52.150;4.768;2022-10-23T00:55:21;16.20;99.90
16315;DHT22;8266;52.150;4.768;2022-10-23T00:57:51;16.20;99.90
16315;DHT22;8266;52.150;4.768;2022-10-23T01:00:21;16.20;99.90
16315;DHT22;8266;52.150;4.768;2022-10-23T01:02:48;16.10;99.90
16315;DHT22;8266;52.150;4.768;2022-10-23T01:05:16;16.10;99.90
16315;DHT22;8266;52.150;4.768;2022-10-23T01:07:50;16.10;99.90
16315;DHT22;8266;52.150;4.768;2022-10-23T01:10:25;16.10;99.90
16315;DHT22;8266;52.150;4.768;2022-10-23T01:13:04;16.10;99.90
16315;DHT22;8266;52.150;4.768;2022-10-23T01:15:36;16.10;99.90
16315;DHT22;8266;52.150;4.768;2022-10-23T01:18:11;16.00;99.90
16315;DHT22;8266;52.150;4.768;2022-10-23T01:20:44;16.00;99.90
16315;DHT22;8266;52.150;4.768;2022-10-23T01:23:45;16.00;99.90
16315;DHT22;8266;52.150;4.768;2022-10-23T01:26:39;16.00;99.90
16315;DHT22;8266;52.150;4.768;2022-10-23T01:29:17;15.90;99.90
16315;DHT22;8266;52.150;4.768;2022-10-23T01:31:52;16.00;99.90
16315;DHT22;8266;52.150;4.768;2022-10-23T01:34:28;15.90;99.90
16315;DHT22;8266;52.150;4.768;2022-10-23T01:36:58;15.90;99.90
16315;DHT22;8266;52.150;4.768;2022-10-23T01:39:31;15.90;99.90
16315;DHT22;8266;52.150;4.768;2022-10-23T01:42:04;15.90;99.90
16315;DHT22;8266;52.150;4.768;2022-10-23T01:44:36;15.90;99.90
16315;DHT22;8266;52.150;4.768;2022-10-23T01:47:09;15.90;99.90
16315;DHT22;8266;52.150;4.768;2022-10-23T01:49:39;15.90;99.90
16315;DHT22;8266;52.150;4.768;2022-10-23T01:52:10;15.80;99.90
16315;DHT22;8266;52.150;4.768;2022-10-23T01:54:46;15.80;99.90
16315;DHT22;8266;52.150;4.768;2022-10-23T01:57:21;15.80;99.90
16315;DHT22;8266;52.150;4.768;2022-10-23T01:59:52;15.80;99.90
16315;DHT22;8266;52.150;4.768;2022-10-23T02:02:23;15.80;99.90
16315;DHT22;8266;52.150;4.768;2022-10-23T02:04:59;15.80;99.90
16315;DHT22;8266;52.150;4.768;2022-10-23T02:07:27;15.80;99.90
16315;DHT22;8266;52.150;4.768;2022-10-23T02:09:56;15.80;99.90
16315;DHT22;8266;52.150;4.768;2022-10-23T02:12:29;15.80;99.90
16315;DHT22;8266;52.150;4.768;2022-10-23T02:15:07;15.70;99.90
16315;DHT22;8266;52.150;4.768;2022-10-23T02:17:44;15.70;99.90
16315;DHT22;8266;52.150;4.768;2022-10-23T02:20:19;15.70;99.90
16315;DHT22;8266;52.150;4.768;2022-10-23T02:22:54;15.70;99.90
16315;DHT22;8266;52.150;4.768;2022-10-23T02:25:27;15.70;99.90
16315;DHT22;8266;52.150;4.768;2022-10-23T02:27:57;15.70;99.90
16315;DHT22;8266;52.150;4.768;2022-10-23T02:30:28;15.70;99.90
16315;DHT22;8266;52.150;4.768;2022-10-23T02:33:02;15.60;99.90
16315;DHT22;8266;52.150;4.768;2022-10-23T02:35:31;15.70;99.90
16315;DHT22;8266;52.150;4.768;2022-10-23T02:38:02;15.60;99.90
16315;DHT22;8266;52.150;4.768;2022-10-23T02:40:32;15.60;99.90
16315;DHT22;8266;52.150;4.768;2022-10-23T02:43:05;15.60;99.90
16315;DHT22;8266;52.150;4.768;2022-10-23T02:45:45;15.60;99.90
16315;DHT22;8266;52.150;4.768;2022-10-23T02:48:19;15.60;99.90
16315;DHT22;8266;52.150;4.768;2022-10-23T02:50:59;15.60;99.90
16315;DHT22;8266;52.150;4.768;2022-10-23T02:53:41;15.60;99.90
16315;DHT22;8266;52.150;4.768;2022-10-23T02:56:17;15.60;99.90
16315;DHT22;8266;52.150;4.768;2022-10-23T02:58:54;15.60;99.90
16315;DHT22;8266;52.150;4.768;2022-10-23T03:01:35;15.50;99.90
16315;DHT22;8266;52.150;4.768;2022-10-23T03:04:09;15.50;99.90
16315;DHT22;8266;52.150;4.768;2022-10-23T03:06:49;15.40;99.90
16315;DHT22;8266;52.150;4.768;2022-10-23T03:09:17;15.40;99.90
16315;DHT22;8266;52.150;4.768;2022-10-23T03:11:50;15.50;99.90
16315;DHT22;8266;52.150;4.768;2022-10-23T03:14:19;15.50;99.90
16315;DHT22;8266;52.150;4.768;2022-10-23T03:16:51;15.40;99.90
16315;DHT22;8266;52.150;4.768;2022-10-23T03:19:18;15.50;99.90
16315;DHT22;8266;52.150;4.768;2022-10-23T03:21:45;15.40;99.90
16315;DHT22;8266;52.150;4.768;2022-10-23T03:24:12;15.40;99.90
16315;DHT22;8266;52.150;4.768;2022-10-23T03:26:39;15.40;99.90
16315;DHT22;8266;52.150;4.768;2022-10-23T03:29:06;15.40;99.90
16315;DHT22;8266;52.150;4.768;2022-10-23T03:31:33;15.40;99.90
16315;DHT22;8266;52.150;4.768;2022-10-23T03:34:02;15.40;99.90
16315;DHT22;8266;52.150;4.768;2022-10-23T03:36:34;15.40;99.90
16315;DHT22;8266;52.150;4.768;2022-10-23T03:39:03;15.40;99.90
16315;DHT22;8266;52.150;4.768;2022-10-23T03:41:31;15.40;99.90
16315;DHT22;8266;52.150;4.768;2022-10-23T03:43:58;15.40;99.90
16315;DHT22;8266;52.150;4.768;2022-10-23T03:46:25;15.40;99.90
16315;DHT22;8266;52.150;4.768;2022-10-23T03:48:52;15.30;99.90
16315;DHT22;8266;52.150;4.768;2022-10-23T03:51:22;15.40;99.90
16315;DHT22;8266;52.150;4.768;2022-10-23T03:53:50;15.40;99.90
16315;DHT22;8266;52.150;4.768;2022-10-23T03:56:17;15.40;99.90
16315;DHT22;8266;52.150;4.768;2022-10-23T03:58:44;15.40;99.90
16315;DHT22;8266;52.150;4.768;2022-10-23T04:01:13;15.40;99.90
16315;DHT22;8266;52.150;4.768;2022-10-23T04:03:43;15.40;99.90
16315;DHT22;8266;52.150;4.768;2022-10-23T04:06:10;15.40;99.90
16315;DHT22;8266;52.150;4.768;2022-10-23T04:08:39;15.40;99.90
16315;DHT22;8266;52.150;4.768;2022-10-23T04:11:07;15.40;99.90
16315;DHT22;8266;52.150;4.768;2022-10-23T04:13:34;15.40;99.90
16315;DHT22;8266;52.150;4.768;2022-10-23T04:16:05;15.40;99.90
16315;DHT22;8266;52.150;4.768;2022-10-23T04:18:33;15.30;99.90
16315;DHT22;8266;52.150;4.768;2022-10-23T04:21:04;15.40;99.90
16315;DHT22;8266;52.150;4.768;2022-10-23T04:23:33;15.40;99.90
16315;DHT22;8266;52.150;4.768;2022-10-23T04:26:02;15.40;99.90
16315;DHT22;8266;52.150;4.768;2022-10-23T04:28:29;15.40;99.90
16315;DHT22;8266;52.150;4.768;2022-10-23T04:31:02;15.40;99.90
16315;DHT22;8266;52.150;4.768;2022-10-23T04:33:29;15.30;99.90
16315;DHT22;8266;52.150;4.768;2022-10-23T04:35:59;15.30;99.90
16315;DHT22;8266;52.150;4.768;2022-10-23T04:38:26;15.30;99.90
16315;DHT22;8266;52.150;4.768;2022-10-23T04:40:54;15.30;99.90
16315;DHT22;8266;52.150;4.768;2022-10-23T04:43:22;15.30;99.90
16315;DHT22;8266;52.150;4.768;2022-10-23T04:45:49;15.30;99.90
16315;DHT22;8266;52.150;4.768;2022-10-23T04:48:17;15.30;99.90
16315;DHT22;8266;52.150;4.768;2022-10-23T04:50:59;15.40;99.90
16315;DHT22;8266;52.150;4.768;2022-10-23T04:53:27;15.40;99.90
16315;DHT22;8266;52.150;4.768;2022-10-23T04:55:56;15.40;99.90
16315;DHT22;8266;52.150;4.768;2022-10-23T04:58:28;15.40;99.90
16315;DHT22;8266;52.150;4.768;2022-10-23T05:00:55;15.40;99.90
16315;DHT22;8266;52.150;4.768;2022-10-23T05:03:23;15.40;99.90
16315;DHT22;8266;52.150;4.768;2022-10-23T05:05:52;15.50;99.90
16315;DHT22;8266;52.150;4.768;2022-10-23T05:08:20;15.40;99.90
16315;DHT22;8266;52.150;4.768;2022-10-23T05:10:48;15.40;99.90
16315;DHT22;8266;52.150;4.768;2022-10-23T05:13:15;15.40;99.90
16315;DHT22;8266;52.150;4.768;2022-10-23T05:15:46;15.50;99.90
16315;DHT22;8266;52.150;4.768;2022-10-23T05:18:17;15.50;99.90
16315;DHT22;8266;52.150;4.768;2022-10-23T05:20:47;15.50;99.90
16315;DHT22;8266;52.150;4.768;2022-10-23T05:23:17;15.40;99.90
16315;DHT22;8266;52.150;4.768;2022-10-23T05:25:45;15.50;99.90
16315;DHT22;8266;52.150;4.768;2022-10-23T05:28:12;15.50;99.90
16315;DHT22;8266;52.150;4.768;2022-10-23T05:30:40;15.50;99.90
16315;DHT22;8266;52.150;4.768;2022-10-23T05:33:09;15.50;99.90
16315;DHT22;8266;52.150;4.768;2022-10-23T05:35:37;15.50;99.90
16315;DHT22;8266;52.150;4.768;2022-10-23T05:38:06;15.50;99.90
16315;DHT22;8266;52.150;4.768;2022-10-23T05:40:33;15.50;99.90
16315;DHT22;8266;52.150;4.768;2022-10-23T05:43:00;15.50;99.90
16315;DHT22;8266;52.150;4.768;2022-10-23T05:45:27;15.50;99.90
16315;DHT22;8266;52.150;4.768;2022-10-23T05:47:54;15.50;99.90
16315;DHT22;8266;52.150;4.768;2022-10-23T05:50:22;15.60;99.90
16315;DHT22;8266;52.150;4.768;2022-10-23T05:52:50;15.60;99.90
16315;DHT22;8266;52.150;4.768;2022-10-23T05:55:17;15.60;99.90
16315;DHT22;8266;52.150;4.768;2022-10-23T05:57:43;15.60;99.90
16315;DHT22;8266;52.150;4.768;2022-10-23T06:00:11;15.60;99.90
16315;DHT22;8266;52.150;4.768;2022-10-23T06:02:39;15.60;99.90
16315;DHT22;8266;52.150;4.768;2022-10-23T06:05:08;15.60;99.90
16315;DHT22;8266;52.150;4.768;2022-10-23T06:07:39;15.60;99.90
16315;DHT22;8266;52.150;4.768;2022-10-23T06:10:10;15.60;99.90
16315;DHT22;8266;52.150;4.768;2022-10-23T06:12:37;15.60;99.90
16315;DHT22;8266;52.150;4.768;2022-10-23T06:15:05;15.70;99.90
16315;DHT22;8266;52.150;4.768;2022-10-23T06:17:32;15.70;99.90
16315;DHT22;8266;52.150;4.768;2022-10-23T06:20:01;15.70;99.90
16315;DHT22;8266;52.150;4.768;2022-10-23T06:22:31;15.70;99.90
16315;DHT22;8266;52.150;4.768;2022-10-23T06:25:00;15.70;99.90
16315;DHT22;8266;52.150;4.768;2022-10-23T06:27:27;15.80;99.90
16315;DHT22;8266;52.150;4.768;2022-10-23T06:29:54;15.80;99.90
16315;DHT22;8266;52.150;4.768;2022-10-23T06:32:23;15.80;99.90
16315;DHT22;8266;52.150;4.768;2022-10-23T06:34:50;15.80;99.90
16315;DHT22;8266;52.150;4.768;2022-10-23T06:37:17;15.80;99.90
16315;DHT22;8266;52.150;4.768;2022-10-23T06:39:47;15.80;99.90
16315;DHT22;8266;52.150;4.768;2022-10-23T06:42:16;15.80;99.90
16315;DHT22;8266;52.150;4.768;2022-10-23T06:44:45;15.80;99.90
16315;DHT22;8266;52.150;4.768;2022-10-23T06:47:22;15.80;99.90
16315;DHT22;8266;52.150;4.768;2022-10-23T06:50:13;15.90;99.90
16315;DHT22;8266;52.150;4.768;2022-10-23T06:52:53;15.80;99.90
16315;DHT22;8266;52.150;4.768;2022-10-23T06:55:33;15.90;99.90
16315;DHT22;8266;52.150;4.768;2022-10-23T06:58:04;15.80;99.90
16315;DHT22;8266;52.150;4.768;2022-10-23T07:00:36;15.80;99.90
16315;DHT22;8266;52.150;4.768;2022-10-23T07:03:04;15.90;99.90
16315;DHT22;8266;52.150;4.768;2022-10-23T07:05:33;15.90;99.90
16315;DHT22;8266;52.150;4.768;2022-10-23T07:08:00;15.90;99.90
16315;DHT22;8266;52.150;4.768;2022-10-23T07:10:27;15.90;99.90
16315;DHT22;8266;52.150;4.768;2022-10-23T07:12:54;15.90;99.90
16315;DHT22;8266;52.150;4.768;2022-10-23T07:15:29;16.00;99.90
16315;DHT22;8266;52.150;4.768;2022-10-23T07:17:57;16.00;99.90
16315;DHT22;8266;52.150;4.768;2022-10-23T07:20:25;16.00;99.90
16315;DHT22;8266;52.150;4.768;2022-10-23T07:22:57;16.00;99.90
16315;DHT22;8266;52.150;4.768;2022-10-23T07:25:25;16.00;99.90
16315;DHT22;8266;52.150;4.768;2022-10-23T07:27:58;16.10;99.90
16315;DHT22;8266;52.150;4.768;2022-10-23T07:30:26;16.10;99.90
16315;DHT22;8266;52.150;4.768;2022-10-23T07:32:53;16.10;99.90
16315;DHT22;8266;52.150;4.768;2022-10-23T07:35:23;16.10;99.90
16315;DHT22;8266;52.150;4.768;2022-10-23T07:37:59;16.20;99.90
16315;DHT22;8266;52.150;4.768;2022-10-23T07:40:26;16.20;99.90
16315;DHT22;8266;52.150;4.768;2022-10-23T07:42:53;16.20;99.90
16315;DHT22;8266;52.150;4.768;2022-10-23T07:45:20;16.20;99.90
16315;DHT22;8266;52.150;4.768;2022-10-23T07:47:51;16.30;99.90
16315;DHT22;8266;52.150;4.768;2022-10-23T07:50:18;16.30;99.90
16315;DHT22;8266;52.150;4.768;2022-10-23T07:52:45;16.30;99.90
16315;DHT22;8266;52.150;4.768;2022-10-23T07:55:12;16.40;99.90
16315;DHT22;8266;52.150;4.768;2022-10-23T07:57:39;16.40;99.90
16315;DHT22;8266;52.150;4.768;2022-10-23T08:00:08;16.40;99.90
16315;DHT22;8266;52.150;4.768;2022-10-23T08:02:35;16.40;99.90
16315;DHT22;8266;52.150;4.768;2022-10-23T08:05:04;16.50;99.90
16315;DHT22;8266;52.150;4.768;2022-10-23T08:07:32;16.50;99.90
16315;DHT22;8266;52.150;4.768;2022-10-23T08:10:07;16.60;99.90
16315;DHT22;8266;52.150;4.768;2022-10-23T08:12:37;16.60;99.90
16315;DHT22;8266;52.150;4.768;2022-10-23T08:15:05;16.60;99.90
16315;DHT22;8266;52.150;4.768;2022-10-23T08:17:32;16.70;99.90
16315;DHT22;8266;52.150;4.768;2022-10-23T08:20:01;16.70;99.90
16315;DHT22;8266;52.150;4.768;2022-10-23T08:22:29;16.70;99.90
16315;DHT22;8266;52.150;4.768;2022-10-23T08:24:56;16.80;99.90
16315;DHT22;8266;52.150;4.768;2022-10-23T08:27:23;16.70;99.90
16315;DHT22;8266;52.150;4.768;2022-10-23T08:29:50;16.80;99.90
16315;DHT22;8266;52.150;4.768;2022-10-23T08:32:17;16.80;99.90
16315;DHT22;8266;52.150;4.768;2022-10-23T08:34:47;16.80;99.90
16315;DHT22;8266;52.150;4.768;2022-10-23T08:37:16;16.80;99.90
16315;DHT22;8266;52.150;4.768;2022-10-23T08:39:44;16.90;99.90
16315;DHT22;8266;52.150;4.768;2022-10-23T08:42:19;16.90;99.90
16315;DHT22;8266;52.150;4.768;2022-10-23T08:44:55;16.90;99.90
16315;DHT22;8266;52.150;4.768;2022-10-23T08:47:27;16.90;99.90
16315;DHT22;8266;52.150;4.768;2022-10-23T08:49:58;17.00;99.90
16315;DHT22;8266;52.150;4.768;2022-10-23T08:52:30;17.00;99.90
16315;DHT22;8266;52.150;4.768;2022-10-23T08:55:08;17.00;99.90
16315;DHT22;8266;52.150;4.768;2022-10-23T08:57:44;17.00;99.90
16315;DHT22;8266;52.150;4.768;2022-10-23T09:00:16;17.00;99.90
16315;DHT22;8266;52.150;4.768;2022-10-23T09:02:45;17.10;99.90
16315;DHT22;8266;52.150;4.768;2022-10-23T09:05:16;17.10;99.90
16315;DHT22;8266;52.150;4.768;2022-10-23T09:07:56;17.10;99.90
16315;DHT22;8266;52.150;4.768;2022-10-23T09:10:50;17.10;99.90
16315;DHT22;8266;52.150;4.768;2022-10-23T09:16:27;17.20;99.90
16315;DHT22;8266;52.150;4.768;2022-10-23T09:18:58;17.20;99.90
16315;DHT22;8266;52.150;4.768;2022-10-23T09:21:26;17.30;99.90
16315;DHT22;8266;52.150;4.768;2022-10-23T09:23:54;17.30;99.90
16315;DHT22;8266;52.150;4.768;2022-10-23T09:26:22;17.30;99.90
16315;DHT22;8266;52.150;4.768;2022-10-23T09:28:51;17.40;99.90
16315;DHT22;8266;52.150;4.768;2022-10-23T09:31:20;17.40;99.90
16315;DHT22;8266;52.150;4.768;2022-10-23T09:33:54;17.40;99.90
16315;DHT22;8266;52.150;4.768;2022-10-23T09:36:21;17.40;99.90
16315;DHT22;8266;52.150;4.768;2022-10-23T09:38:57;17.50;99.90
16315;DHT22;8266;52.150;4.768;2022-10-23T09:41:32;17.50;99.90
16315;DHT22;8266;52.150;4.768;2022-10-23T09:44:16;17.50;99.90
16315;DHT22;8266;52.150;4.768;2022-10-23T09:46:47;17.50;99.90
16315;DHT22;8266;52.150;4.768;2022-10-23T09:49:19;17.50;99.90
16315;DHT22;8266;52.150;4.768;2022-10-23T09:51:58;17.60;99.90
16315;DHT22;8266;52.150;4.768;2022-10-23T09:54:33;17.60;99.90
16315;DHT22;8266;52.150;4.768;2022-10-23T09:57:14;17.60;99.90
16315;DHT22;8266;52.150;4.768;2022-10-23T09:59:49;17.60;99.90
16315;DHT22;8266;52.150;4.768;2022-10-23T10:02:20;17.60;99.90
16315;DHT22;8266;52.150;4.768;2022-10-23T10:04:51;17.70;99.90
16315;DHT22;8266;52.150;4.768;2022-10-23T10:07:21;17.70;99.90
16315;DHT22;8266;52.150;4.768;2022-10-23T10:09:49;17.70;99.90
16315;DHT22;8266;52.150;4.768;2022-10-23T10:12:35;17.70;99.90
16315;DHT22;8266;52.150;4.768;2022-10-23T10:15:16;17.70;99.90
16315;DHT22;8266;52.150;4.768;2022-10-23T10:17:56;17.80;99.90
16315;DHT22;8266;52.150;4.768;2022-10-23T10:20:45;17.80;99.90
16315;DHT22;8266;52.150;4.768;2022-10-23T10:23:27;17.80;99.90
16315;DHT22;8266;52.150;4.768;2022-10-23T10:26:01;17.70;99.90
16315;DHT22;8266;52.150;4.768;2022-10-23T10:28:51;17.80;99.90
16315;DHT22;8266;52.150;4.768;2022-10-23T10:31:27;17.90;99.90
16315;DHT22;8266;52.150;4.768;2022-10-23T10:34:06;17.90;99.90
16315;DHT22;8266;52.150;4.768;2022-10-23T10:36:44;18.00;99.90
16315;DHT22;8266;52.150;4.768;2022-10-23T10:39:23;18.00;99.90
16315;DHT22;8266;52.150;4.768;2022-10-23T10:42:07;18.00;99.90
16315;DHT22;8266;52.150;4.768;2022-10-23T10:44:53;18.10;99.90
16315;DHT22;8266;52.150;4.768;2022-10-23T10:47:30;18.10;99.90
16315;DHT22;8266;52.150;4.768;2022-10-23T10:50:13;18.10;99.90
16315;DHT22;8266;52.150;4.768;2022-10-23T10:52:49;18.20;99.90
16315;DHT22;8266;52.150;4.768;2022-10-23T10:55:25;18.20;99.90
16315;DHT22;8266;52.150;4.768;2022-10-23T10:57:58;18.20;99.90
16315;DHT22;8266;52.150;4.768;2022-10-23T11:00:28;18.30;99.90
16315;DHT22;8266;52.150;4.768;2022-10-23T11:02:59;18.30;99.90
16315;DHT22;8266;52.150;4.768;2022-10-23T11:05:31;18.30;99.90
16315;DHT22;8266;52.150;4.768;2022-10-23T11:08:03;18.40;99.90
16315;DHT22;8266;52.150;4.768;2022-10-23T11:10:31;18.50;99.90
16315;DHT22;8266;52.150;4.768;2022-10-23T11:12:59;18.50;99.90
16315;DHT22;8266;52.150;4.768;2022-10-23T11:15:33;18.50;99.90
16315;DHT22;8266;52.150;4.768;2022-10-23T11:18:05;18.60;99.90
16315;DHT22;8266;52.150;4.768;2022-10-23T11:20:54;18.60;99.90
16315;DHT22;8266;52.150;4.768;2022-10-23T11:26:30;18.80;99.90
16315;DHT22;8266;52.150;4.768;2022-10-23T11:29:20;18.80;99.90
16315;DHT22;8266;52.150;4.768;2022-10-23T11:32:04;18.90;99.90
16315;DHT22;8266;52.150;4.768;2022-10-23T11:34:54;19.00;99.90
16315;DHT22;8266;52.150;4.768;2022-10-23T11:37:25;19.10;99.90
16315;DHT22;8266;52.150;4.768;2022-10-23T11:40:00;19.20;99.90
16315;DHT22;8266;52.150;4.768;2022-10-23T11:42:32;19.30;99.90
16315;DHT22;8266;52.150;4.768;2022-10-23T11:45:01;19.40;99.90
16315;DHT22;8266;52.150;4.768;2022-10-23T11:47:32;19.40;99.90
16315;DHT22;8266;52.150;4.768;2022-10-23T11:50:15;19.50;99.90
16315;DHT22;8266;52.150;4.768;2022-10-23T11:53:01;19.60;99.90
16315;DHT22;8266;52.150;4.768;2022-10-23T11:55:31;19.60;99.90
16315;DHT22;8266;52.150;4.768;2022-10-23T11:58:18;19.70;99.90
16315;DHT22;8266;52.150;4.768;2022-10-23T12:00:56;19.80;99.90
16315;DHT22;8266;52.150;4.768;2022-10-23T12:03:29;19.90;99.90
16315;DHT22;8266;52.150;4.768;2022-10-23T12:06:03;19.90;99.90
16315;DHT22;8266;52.150;4.768;2022-10-23T12:08:32;19.90;99.90
16315;DHT22;8266;52.150;4.768;2022-10-23T12:11:00;20.00;99.90
16315;DHT22;8266;52.150;4.768;2022-10-23T12:13:45;20.00;99.90
16315;DHT22;8266;52.150;4.768;2022-10-23T12:16:12;20.10;99.90
16315;DHT22;8266;52.150;4.768;2022-10-23T12:18:49;20.00;99.90
16315;DHT22;8266;52.150;4.768;2022-10-23T12:21:19;20.10;99.90
16315;DHT22;8266;52.150;4.768;2022-10-23T12:24:07;20.10;99.90
16315;DHT22;8266;52.150;4.768;2022-10-23T12:26:54;20.10;99.90
16315;DHT22;8266;52.150;4.768;2022-10-23T12:30:03;20.20;99.90
16315;DHT22;8266;52.150;4.768;2022-10-23T12:32:54;20.20;99.90
16315;DHT22;8266;52.150;4.768;2022-10-23T12:38:23;20.30;99.90
16315;DHT22;8266;52.150;4.768;2022-10-23T12:40:53;20.30;99.90
16315;DHT22;8266;52.150;4.768;2022-10-23T12:43:25;20.30;99.90
16315;DHT22;8266;52.150;4.768;2022-10-23T12:46:04;20.40;99.90
16315;DHT22;8266;52.150;4.768;2022-10-23T12:48:47;20.40;99.90
16315;DHT22;8266;52.150;4.768;2022-10-23T12:51:22;20.50;99.90
16315;DHT22;8266;52.150;4.768;2022-10-23T12:53:50;20.60;99.90
16315;DHT22;8266;52.150;4.768;2022-10-23T12:56:23;20.60;99.90
16315;DHT22;8266;52.150;4.768;2022-10-23T12:58:53;20.60;99.90
16315;DHT22;8266;52.150;4.768;2022-10-23T13:01:24;20.60;99.90
16315;DHT22;8266;52.150;4.768;2022-10-23T13:03:56;20.70;99.90
16315;DHT22;8266;52.150;4.768;2022-10-23T13:06:27;20.70;99.90
16315;DHT22;8266;52.150;4.768;2022-10-23T13:09:09;20.70;99.90
16315;DHT22;8266;52.150;4.768;2022-10-23T13:11:40;20.70;99.90
16315;DHT22;8266;52.150;4.768;2022-10-23T13:14:10;20.70;99.90
16315;DHT22;8266;52.150;4.768;2022-10-23T13:16:38;20.80;99.90
16315;DHT22;8266;52.150;4.768;2022-10-23T13:19:22;20.80;99.90
16315;DHT22;8266;52.150;4.768;2022-10-23T13:21:52;20.80;99.90
16315;DHT22;8266;52.150;4.768;2022-10-23T13:24:21;20.80;99.90
16315;DHT22;8266;52.150;4.768;2022-10-23T13:26:48;20.90;99.90
16315;DHT22;8266;52.150;4.768;2022-10-23T13:29:19;20.90;99.90
16315;DHT22;8266;52.150;4.768;2022-10-23T13:31:47;20.90;99.90
16315;DHT22;8266;52.150;4.768;2022-10-23T13:34:26;20.90;99.90
16315;DHT22;8266;52.150;4.768;2022-10-23T13:37:00;20.90;99.90
16315;DHT22;8266;52.150;4.768;2022-10-23T13:39:31;20.90;99.90
16315;DHT22;8266;52.150;4.768;2022-10-23T13:42:05;21.00;99.90
16315;DHT22;8266;52.150;4.768;2022-10-23T13:44:38;21.00;99.90
16315;DHT22;8266;52.150;4.768;2022-10-23T13:47:05;21.00;99.90
16315;DHT22;8266;52.150;4.768;2022-10-23T13:49:37;21.00;99.90
16315;DHT22;8266;52.150;4.768;2022-10-23T13:54:41;21.10;99.90
16315;DHT22;8266;52.150;4.768;2022-10-23T13:59:38;21.20;99.90
16315;DHT22;8266;52.150;4.768;2022-10-23T14:02:17;21.20;99.90
16315;DHT22;8266;52.150;4.768;2022-10-23T14:04:44;21.20;99.90
16315;DHT22;8266;52.150;4.768;2022-10-23T14:07:13;21.30;99.90
16315;DHT22;8266;52.150;4.768;2022-10-23T14:09:40;21.30;99.90
16315;DHT22;8266;52.150;4.768;2022-10-23T14:12:07;21.30;99.90
16315;DHT22;8266;52.150;4.768;2022-10-23T14:14:36;21.30;99.90
16315;DHT22;8266;52.150;4.768;2022-10-23T14:17:06;21.30;99.90
16315;DHT22;8266;52.150;4.768;2022-10-23T14:19:34;21.40;99.90
16315;DHT22;8266;52.150;4.768;2022-10-23T14:22:01;21.40;99.90
16315;DHT22;8266;52.150;4.768;2022-10-23T14:24:29;21.40;99.90
16315;DHT22;8266;52.150;4.768;2022-10-23T14:26:56;21.40;99.90
16315;DHT22;8266;52.150;4.768;2022-10-23T14:29:24;21.40;99.90
16315;DHT22;8266;52.150;4.768;2022-10-23T14:31:51;21.40;99.90
16315;DHT22;8266;52.150;4.768;2022-10-23T14:34:18;21.40;99.90
16315;DHT22;8266;52.150;4.768;2022-10-23T14:36:45;21.40;99.90
16315;DHT22;8266;52.150;4.768;2022-10-23T14:39:12;21.40;99.90
16315;DHT22;8266;52.150;4.768;2022-10-23T14:41:40;21.40;99.90
16315;DHT22;8266;52.150;4.768;2022-10-23T14:44:07;21.40;99.90
16315;DHT22;8266;52.150;4.768;2022-10-23T14:46:35;21.40;99.90
16315;DHT22;8266;52.150;4.768;2022-10-23T14:49:02;21.40;99.90
16315;DHT22;8266;52.150;4.768;2022-10-23T14:51:30;21.40;99.90
16315;DHT22;8266;52.150;4.768;2022-10-23T14:53:58;21.40;99.90
16315;DHT22;8266;52.150;4.768;2022-10-23T14:56:27;21.40;99.90
16315;DHT22;8266;52.150;4.768;2022-10-23T14:58:57;21.40;99.90
16315;DHT22;8266;52.150;4.768;2022-10-23T15:01:27;21.40;99.90
16315;DHT22;8266;52.150;4.768;2022-10-23T15:03:54;21.40;99.90
16315;DHT22;8266;52.150;4.768;2022-10-23T15:06:22;21.40;99.90
16315;DHT22;8266;52.150;4.768;2022-10-23T15:08:49;21.40;99.90
16315;DHT22;8266;52.150;4.768;2022-10-23T15:11:18;21.40;99.90
16315;DHT22;8266;52.150;4.768;2022-10-23T15:13:45;21.30;99.90
16315;DHT22;8266;52.150;4.768;2022-10-23T15:16:14;21.30;99.90
16315;DHT22;8266;52.150;4.768;2022-10-23T15:18:41;21.30;99.90
16315;DHT22;8266;52.150;4.768;2022-10-23T15:21:08;21.20;99.90
16315;DHT22;8266;52.150;4.768;2022-10-23T15:23:38;21.20;99.90
16315;DHT22;8266;52.150;4.768;2022-10-23T15:26:08;21.20;99.90
16315;DHT22;8266;52.150;4.768;2022-10-23T15:28:38;21.10;99.90
16315;DHT22;8266;52.150;4.768;2022-10-23T15:31:41;21.10;99.90
16315;DHT22;8266;52.150;4.768;2022-10-23T15:34:12;21.10;99.90
16315;DHT22;8266;52.150;4.768;2022-10-23T15:36:41;21.00;99.90
16315;DHT22;8266;52.150;4.768;2022-10-23T15:39:10;21.00;99.90
16315;DHT22;8266;52.150;4.768;2022-10-23T15:41:39;21.00;99.90
16315;DHT22;8266;52.150;4.768;2022-10-23T15:44:08;20.90;99.90
16315;DHT22;8266;52.150;4.768;2022-10-23T15:46:36;20.90;99.90
16315;DHT22;8266;52.150;4.768;2022-10-23T15:49:05;20.90;99.90
16315;DHT22;8266;52.150;4.768;2022-10-23T15:51:42;20.90;99.90
16315;DHT22;8266;52.150;4.768;2022-10-23T15:54:30;20.80;99.90
16315;DHT22;8266;52.150;4.768;2022-10-23T15:56:57;20.80;99.90
16315;DHT22;8266;52.150;4.768;2022-10-23T15:59:24;20.80;99.90
16315;DHT22;8266;52.150;4.768;2022-10-23T16:01:55;20.80;99.90
16315;DHT22;8266;52.150;4.768;2022-10-23T16:04:27;20.80;99.90
16315;DHT22;8266;52.150;4.768;2022-10-23T16:06:54;20.80;99.90
16315;DHT22;8266;52.150;4.768;2022-10-23T16:09:21;20.70;99.90
16315;DHT22;8266;52.150;4.768;2022-10-23T16:11:57;20.70;99.90
16315;DHT22;8266;52.150;4.768;2022-10-23T16:14:27;20.70;99.90
16315;DHT22;8266;52.150;4.768;2022-10-23T16:16:54;20.70;99.90
16315;DHT22;8266;52.150;4.768;2022-10-23T16:19:21;20.70;99.90
16315;DHT22;8266;52.150;4.768;2022-10-23T16:21:50;20.60;99.90
16315;DHT22;8266;52.150;4.768;2022-10-23T16:24:17;20.60;99.90
16315;DHT22;8266;52.150;4.768;2022-10-23T16:26:44;20.60;99.90